Time;durP1;ratioP1;P1;durP2;ratioP2;P2;SDS_P1;SDS_P2;PMS_P1;PMS_P2;Temp;Humidity;BMP_temperature;BMP_pressure;BME280_temperature;BME280_humidity;BME280_pressure;Samples;Min_cycle;Max_cycle;Signal;HPM_P1;HPM_P2
2022/09/29 00:01:56;;;;;;;9.30;6.70;;;10.40;99.90;;;;;;5035924;28;20099;-84
2022/09/29 00:04:22;;;;;;;7.97;6.25;;;10.50;99.90;;;;;;5035586;28;20079;-85
2022/09/29 00:06:47;;;;;;;7.80;6.45;;;10.40;99.90;;;;;;5018435;28;20026;-85
2022/09/29 00:09:13;;;;;;;7.68;6.55;;;10.40;99.90;;;;;;5035917;28;20079;-84
2022/09/29 00:11:39;;;;;;;9.27;5.80;;;10.40;99.90;;;;;;5047883;28;20032;-86
2022/09/29 00:14:05;;;;;;;6.05;5.45;;;10.40;99.90;;;;;;5033170;28;20025;-87
2022/09/29 00:16:31;;;;;;;6.18;5.03;;;10.40;99.90;;;;;;5019431;28;20095;-84
2022/09/29 00:18:58;;;;;;;7.22;5.68;;;10.50;99.90;;;;;;5037556;28;20059;-87
2022/09/29 00:21:23;;;;;;;7.05;6.07;;;10.50;99.90;;;;;;5036448;28;20033;-85
2022/09/29 00:23:50;;;;;;;8.18;5.18;;;10.50;99.90;;;;;;5020442;28;20487;-85
2022/09/29 00:26:20;;;;;;;8.05;5.93;;;10.40;99.90;;;;;;5036677;28;20018;-86
2022/09/29 00:28:58;;;;;;;8.95;5.85;;;10.40;99.90;;;;;;5036040;28;20017;-87
2022/09/29 00:31:29;;;;;;;7.90;6.10;;;10.40;99.90;;;;;;5042728;28;20030;-87
2022/09/29 00:33:55;;;;;;;7.25;5.95;;;10.40;99.90;;;;;;5050320;28;20013;-86
2022/09/29 00:36:22;;;;;;;7.38;5.07;;;10.40;99.90;;;;;;5053075;28;20030;-85
2022/09/29 00:38:51;;;;;;;6.47;5.80;;;10.40;99.90;;;;;;5037972;28;20029;-86
2022/09/29 00:41:23;;;;;;;6.22;5.03;;;10.40;99.90;;;;;;5037887;28;20108;-87
2022/09/29 00:44:02;;;;;;;8.63;6.30;;;10.40;99.90;;;;;;5036245;28;20360;-85
2022/09/29 00:46:43;;;;;;;6.43;4.95;;;10.50;99.90;;;;;;5034930;28;20045;-87
2022/09/29 00:49:30;;;;;;;6.25;5.50;;;10.40;99.90;;;;;;5036327;28;20087;-86
2022/09/29 00:51:58;;;;;;;5.72;5.07;;;10.50;99.90;;;;;;5034858;28;20391;-87
2022/09/29 00:54:27;;;;;;;6.47;5.13;;;10.50;99.80;;;;;;5035772;28;20026;-86
2022/09/29 00:56:55;;;;;;;8.65;5.47;;;10.40;99.80;;;;;;5034787;28;20029;-86
2022/09/29 00:59:30;;;;;;;6.75;4.85;;;10.50;99.80;;;;;;5035599;28;20013;-86
2022/09/29 01:01:57;;;;;;;7.03;4.90;;;10.50;99.70;;;;;;5037765;28;20063;-87
2022/09/29 01:04:23;;;;;;;5.93;5.25;;;10.50;99.60;;;;;;5039007;28;20131;-84
2022/09/29 01:06:53;;;;;;;7.55;5.65;;;10.50;99.60;;;;;;5047113;28;20132;-86
2022/09/29 01:09:24;;;;;;;5.90;5.05;;;10.50;99.50;;;;;;5042442;28;20022;-86
2022/09/29 01:11:52;;;;;;;7.45;5.68;;;10.50;99.40;;;;;;5035671;28;20085;-86
2022/09/29 01:14:19;;;;;;;8.07;5.75;;;10.50;99.40;;;;;;5035789;28;20018;-86
2022/09/29 01:16:45;;;;;;;6.22;4.82;;;10.50;99.50;;;;;;5017383;28;20490;-86
2022/09/29 01:19:49;;;;;;;7.63;5.32;;;10.40;99.50;;;;;;5034025;28;20037;-86
2022/09/29 01:22:43;;;;;;;9.55;5.30;;;10.40;99.50;;;;;;5028846;28;20063;-85
2022/09/29 01:25:30;;;;;;;7.53;4.50;;;10.40;99.50;;;;;;5038956;28;20087;-84
2022/09/29 01:28:07;;;;;;;6.82;4.63;;;10.40;99.50;;;;;;5045475;28;20080;-85
2022/09/29 01:30:51;;;;;;;9.02;4.63;;;10.40;99.50;;;;;;5035216;28;20036;-85
2022/09/29 01:33:42;;;;;;;6.03;5.32;;;10.40;99.60;;;;;;5051391;28;20025;-87
2022/09/29 01:36:27;;;;;;;7.60;5.03;;;10.40;99.50;;;;;;5038156;28;20076;-87
2022/09/29 01:39:18;;;;;;;5.78;4.82;;;10.40;99.50;;;;;;5034647;28;20033;-85
2022/09/29 01:41:58;;;;;;;8.82;5.05;;;10.40;99.60;;;;;;5031078;28;20028;-87
2022/09/29 01:44:32;;;;;;;9.02;5.65;;;10.50;99.60;;;;;;5021484;28;20022;-87
2022/09/29 01:47:13;;;;;;;5.60;5.07;;;10.50;99.50;;;;;;5031421;28;20041;-86
2022/09/29 01:49:45;;;;;;;5.65;4.70;;;10.50;99.40;;;;;;5033650;28;20167;-86
2022/09/29 01:52:25;;;;;;;8.55;5.82;;;10.50;99.30;;;;;;5028588;28;20026;-86
2022/09/29 01:55:02;;;;;;;10.27;5.47;;;10.50;99.10;;;;;;5027026;28;20030;-87
2022/09/29 01:57:43;;;;;;;8.00;5.03;;;10.50;98.80;;;;;;5014555;28;20487;-86
2022/09/29 02:00:12;;;;;;;6.38;5.43;;;10.40;98.60;;;;;;5015309;28;20041;-86
2022/09/29 02:02:55;;;;;;;7.57;5.60;;;10.40;98.50;;;;;;5032897;28;20045;-85
2022/09/29 02:05:42;;;;;;;5.75;5.05;;;10.40;98.30;;;;;;5032706;28;20029;-85
2022/09/29 02:08:20;;;;;;;6.85;5.13;;;10.40;98.30;;;;;;5032557;28;20021;-85
2022/09/29 02:10:59;;;;;;;6.35;4.85;;;10.40;98.30;;;;;;5032765;28;20486;-85
2022/09/29 02:13:29;;;;;;;7.55;5.85;;;10.40;98.20;;;;;;5032446;28;20040;-85
2022/09/29 02:15:57;;;;;;;7.55;5.88;;;10.40;98.30;;;;;;5032210;28;20519;-85
2022/09/29 02:18:28;;;;;;;6.70;4.90;;;10.40;98.30;;;;;;5036514;28;20029;-86
2022/09/29 02:20:54;;;;;;;6.82;5.90;;;10.40;98.20;;;;;;5035123;28;20024;-85
2022/09/29 02:23:20;;;;;;;7.00;5.35;;;10.40;98.20;;;;;;5032830;28;20029;-84
2022/09/29 02:25:48;;;;;;;6.40;5.53;;;10.40;98.10;;;;;;5015967;28;20087;-85
2022/09/29 02:28:15;;;;;;;5.88;5.28;;;10.40;98.10;;;;;;5034051;28;20079;-85
2022/09/29 02:30:41;;;;;;;5.45;4.53;;;10.40;98.00;;;;;;5032343;28;20025;-83
2022/09/29 02:33:17;;;;;;;6.15;4.68;;;10.30;97.90;;;;;;5046051;28;20041;-83
2022/09/29 02:36:16;;;;;;;6.82;4.88;;;10.30;97.90;;;;;;5037618;28;20041;-84
2022/09/29 02:38:50;;;;;;;5.72;4.85;;;10.30;98.00;;;;;;5047242;28;20089;-86
2022/09/29 02:41:37;;;;;;;4.70;3.65;;;10.20;97.80;;;;;;5051816;28;20026;-84
2022/09/29 02:44:11;;;;;;;7.18;4.82;;;10.20;97.80;;;;;;5041157;28;20382;-84
2022/09/29 02:47:10;;;;;;;7.10;4.40;;;10.10;97.70;;;;;;5035339;28;20033;-84
2022/09/29 02:49:45;;;;;;;5.40;4.57;;;10.10;98.00;;;;;;5033286;28;20032;-83
2022/09/29 02:52:38;;;;;;;7.95;5.05;;;10.00;98.20;;;;;;5032525;28;20028;-85
2022/09/29 02:55:18;;;;;;;6.95;5.07;;;9.90;98.40;;;;;;5032561;28;20025;-85
2022/09/29 02:57:52;;;;;;;7.85;5.50;;;10.00;98.60;;;;;;5036330;28;20048;-85
2022/09/29 03:00:19;;;;;;;7.20;4.78;;;10.00;98.70;;;;;;5037973;28;20035;-86
2022/09/29 03:02:46;;;;;;;5.45;4.95;;;10.10;98.70;;;;;;5050498;28;20021;-86
2022/09/29 03:05:20;;;;;;;6.60;4.75;;;10.10;98.60;;;;;;5043193;28;20022;-85
2022/09/29 03:07:46;;;;;;;9.55;5.15;;;10.10;98.50;;;;;;5043327;28;20029;-85
2022/09/29 03:10:14;;;;;;;7.22;5.22;;;10.10;98.60;;;;;;5025371;28;20036;-85
2022/09/29 03:12:40;;;;;;;8.15;6.07;;;10.00;98.80;;;;;;5023557;28;20494;-85
2022/09/29 03:15:06;;;;;;;8.20;5.65;;;9.90;99.00;;;;;;5036202;28;20056;-86
2022/09/29 03:17:33;;;;;;;7.97;5.65;;;9.90;99.30;;;;;;5036257;28;20065;-84
2022/09/29 03:19:59;;;;;;;8.93;5.63;;;9.80;99.40;;;;;;5047967;28;20043;-84
2022/09/29 03:22:26;;;;;;;7.15;5.65;;;9.80;99.50;;;;;;5041585;28;20120;-85
2022/09/29 03:24:52;;;;;;;;;;;9.80;99.70;;;;;;5020108;28;20018;-84
2022/09/29 03:27:18;;;;;;;7.97;5.90;;;9.90;99.60;;;;;;5040114;28;19911;-86
2022/09/29 03:29:44;;;;;;;6.88;6.00;;;9.90;99.70;;;;;;5019756;28;20049;-85
2022/09/29 03:32:10;;;;;;;7.57;5.85;;;9.90;99.70;;;;;;5038415;28;20494;-86
2022/09/29 03:34:35;;;;;;;10.70;5.43;;;10.00;99.70;;;;;;5035493;28;20081;-87
2022/09/29 03:37:02;;;;;;;9.40;5.72;;;10.00;99.50;;;;;;5035658;28;20068;-86
2022/09/29 03:39:28;;;;;;;7.90;5.00;;;10.00;99.40;;;;;;5018071;28;20049;-85
2022/09/29 03:41:54;;;;;;;6.65;4.55;;;10.00;99.40;;;;;;5036354;28;20454;-86
2022/09/29 03:44:20;;;;;;;8.50;4.85;;;10.00;99.30;;;;;;5033656;28;20538;-85
2022/09/29 03:46:46;;;;;;;11.02;5.55;;;9.90;99.40;;;;;;5035238;28;20045;-84
2022/09/29 03:49:17;;;;;;;8.02;5.25;;;9.90;99.50;;;;;;5035311;28;20013;-87
2022/09/29 03:51:43;;;;;;;13.45;6.43;;;9.90;99.60;;;;;;5017236;28;20446;-86
2022/09/29 03:54:10;;;;;;;6.85;5.43;;;10.00;99.60;;;;;;5034955;28;20729;-85
2022/09/29 03:56:36;;;;;;;8.63;5.80;;;10.00;99.60;;;;;;5034349;28;20113;-85
2022/09/29 03:59:04;;;;;;;6.15;5.38;;;10.10;99.50;;;;;;5035194;28;20033;-86
2022/09/29 04:01:31;;;;;;;7.28;5.95;;;10.10;99.50;;;;;;5036089;28;20510;-86
2022/09/29 04:03:57;;;;;;;7.70;5.18;;;10.10;99.40;;;;;;5036156;28;20104;-87
2022/09/29 04:06:23;;;;;;;6.72;5.20;;;10.00;99.30;;;;;;5037262;28;20364;-85
2022/09/29 04:08:49;;;;;;;7.57;5.95;;;10.00;99.40;;;;;;5042120;28;20032;-85
2022/09/29 04:11:15;;;;;;;8.07;5.82;;;10.00;99.50;;;;;;5036515;28;20018;-88
2022/09/29 04:13:41;;;;;;;7.78;5.95;;;10.00;99.50;;;;;;5048248;28;20009;-85
2022/09/29 04:16:07;;;;;;;8.00;4.43;;;10.00;99.70;;;;;;5049457;28;20072;-88
2022/09/29 04:18:33;;;;;;;6.32;5.38;;;10.10;99.30;;;;;;5036421;28;20021;-87
2022/09/29 04:21:04;;;;;;;6.05;5.25;;;10.00;99.30;;;;;;5033216;28;20490;-85
2022/09/29 04:23:29;;;;;;;5.47;4.90;;;10.00;99.40;;;;;;5036466;28;20100;-86
2022/09/29 04:25:56;;;;;;;13.65;5.32;;;10.00;99.40;;;;;;5017762;28;20475;-86
2022/09/29 04:28:23;;;;;;;6.63;4.85;;;10.00;99.30;;;;;;5018590;28;20391;-86
2022/09/29 04:30:49;;;;;;;8.95;5.90;;;10.00;99.20;;;;;;5034147;28;20030;-84
2022/09/29 04:33:15;;;;;;;9.60;5.22;;;10.00;99.10;;;;;;5037120;28;20104;-86
2022/09/29 04:35:40;;;;;;;5.85;4.70;;;10.00;99.20;;;;;;5048856;28;20021;-85
2022/09/29 04:38:07;;;;;;;7.50;5.30;;;10.00;99.30;;;;;;5056606;28;20010;-85
2022/09/29 04:40:34;;;;;;;6.65;5.40;;;10.00;99.30;;;;;;5046439;28;20014;-86
2022/09/29 04:43:01;;;;;;;6.00;4.80;;;10.10;99.10;;;;;;5025194;28;20025;-86
2022/09/29 04:45:27;;;;;;;9.10;6.05;;;10.10;99.10;;;;;;5036856;28;20056;-86
2022/09/29 04:47:52;;;;;;;6.13;5.32;;;10.10;99.20;;;;;;5018336;28;20493;-85
2022/09/29 04:50:18;;;;;;;9.68;5.57;;;10.10;99.30;;;;;;5038156;28;20025;-86
2022/09/29 04:52:44;;;;;;;9.25;5.43;;;10.10;99.10;;;;;;5037996;28;20415;-85
2022/09/29 04:55:11;;;;;;;9.13;5.90;;;10.20;99.10;;;;;;5036819;28;20044;-87
2022/09/29 04:57:38;;;;;;;8.75;6.15;;;10.20;99.00;;;;;;5019107;28;20078;-84
2022/09/29 05:00:06;;;;;;;9.55;5.97;;;10.20;99.00;;;;;;5034952;28;20843;-85
2022/09/29 05:02:33;;;;;;;9.30;6.15;;;10.30;98.90;;;;;;5035411;28;20037;-87
2022/09/29 05:04:59;;;;;;;7.53;5.88;;;10.40;98.90;;;;;;5036520;28;20099;-87
2022/09/29 05:07:25;;;;;;;9.93;6.53;;;10.50;98.60;;;;;;5032100;28;20013;-85
2022/09/29 05:09:51;;;;;;;8.00;5.80;;;10.50;98.40;;;;;;5017130;28;20022;-86
2022/09/29 05:12:17;;;;;;;9.73;6.72;;;10.40;98.20;;;;;;5035161;28;20032;-85
2022/09/29 05:14:43;;;;;;;9.90;7.75;;;10.40;98.40;;;;;;5035592;28;20309;-86
2022/09/29 05:17:09;;;;;;;12.02;7.20;;;10.40;98.50;;;;;;5036123;28;20132;-86
2022/09/29 05:19:34;;;;;;;11.02;8.05;;;10.50;98.60;;;;;;5033639;28;20049;-87
2022/09/29 05:22:01;;;;;;;13.98;8.20;;;10.50;98.60;;;;;;5034394;28;20037;-87
2022/09/29 05:24:27;;;;;;;12.27;6.80;;;10.60;98.60;;;;;;5017825;28;20437;-86
2022/09/29 05:26:53;;;;;;;13.15;7.78;;;10.60;98.40;;;;;;5034329;28;20041;-86
2022/09/29 05:29:20;;;;;;;10.60;7.05;;;10.50;98.40;;;;;;5034011;28;20426;-86
2022/09/29 05:31:45;;;;;;;15.95;8.20;;;10.60;98.50;;;;;;5034343;28;20059;-86
2022/09/29 05:34:11;;;;;;;10.60;6.60;;;10.60;98.50;;;;;;5016000;28;20482;-85
2022/09/29 05:36:37;;;;;;;9.15;6.95;;;10.60;98.30;;;;;;5015380;28;20778;-88
2022/09/29 05:39:03;;;;;;;11.13;6.97;;;10.60;98.40;;;;;;5016438;28;20017;-88
2022/09/29 05:41:29;;;;;;;10.90;6.55;;;10.60;98.50;;;;;;5034105;28;20030;-88
2022/09/29 05:43:55;;;;;;;12.48;8.13;;;10.60;98.40;;;;;;5034734;28;20106;-88
2022/09/29 05:46:22;;;;;;;10.48;8.63;;;10.60;98.50;;;;;;5023928;28;20046;-86
2022/09/29 05:48:52;;;;;;;12.45;7.95;;;10.60;98.60;;;;;;5035245;28;20036;-86
2022/09/29 05:51:21;;;;;;;13.13;8.27;;;10.70;98.60;;;;;;5020521;28;20033;-90
2022/09/29 05:53:48;;;;;;;12.52;8.70;;;10.70;98.50;;;;;;5043494;28;20029;-87
2022/09/29 05:56:20;;;;;;;15.48;8.50;;;10.70;98.50;;;;;;5039230;28;20036;-89
2022/09/29 05:58:46;;;;;;;11.88;7.63;;;10.70;98.40;;;;;;5014957;28;20030;-89
2022/09/29 06:01:20;;;;;;;14.13;10.05;;;10.70;98.80;;;;;;5036852;28;20014;-87
2022/09/29 06:03:46;;;;;;;15.13;8.98;;;10.70;98.60;;;;;;5019993;28;20120;-88
2022/09/29 06:06:14;;;;;;;15.73;9.55;;;10.60;98.60;;;;;;5034858;28;20542;-86
2022/09/29 06:08:41;;;;;;;13.00;8.90;;;10.60;98.70;;;;;;5011782;28;20055;-88
2022/09/29 06:11:10;;;;;;;16.83;10.83;;;10.70;98.70;;;;;;5036495;28;20021;-88
2022/09/29 06:13:50;;;;;;;16.98;10.35;;;10.60;98.70;;;;;;5039670;28;20074;-86
2022/09/29 06:16:18;;;;;;;15.93;10.63;;;10.50;98.90;;;;;;5027294;28;20033;-88
2022/09/29 06:18:45;;;;;;;23.45;14.10;;;10.50;99.30;;;;;;5043542;28;20108;-88
2022/09/29 06:21:15;;;;;;;26.33;15.77;;;10.30;99.90;;;;;;5043199;28;20021;-87
2022/09/29 06:23:41;;;;;;;23.55;14.15;;;10.20;99.90;;;;;;5039856;28;20021;-86
2022/09/29 06:26:15;;;;;;;24.30;15.63;;;10.10;99.90;;;;;;5043083;28;20037;-89
2022/09/29 06:28:44;;;;;;;23.38;15.43;;;9.90;99.90;;;;;;5043398;28;20021;-88
2022/09/29 06:31:13;;;;;;;26.63;15.15;;;9.90;99.90;;;;;;5011116;28;20040;-87
2022/09/29 06:33:39;;;;;;;20.00;13.80;;;9.90;99.90;;;;;;5048505;28;20017;-88
2022/09/29 06:39:02;;;;;;;29.40;17.27;;;9.90;99.90;;;;;;5048752;28;20048;-86
2022/09/29 06:41:28;;;;;;;27.08;16.17;;;10.00;99.90;;;;;;5038236;28;20465;-88
2022/09/29 06:43:55;;;;;;;23.90;15.68;;;10.20;99.90;;;;;;5030942;28;20033;-89
2022/09/29 06:46:21;;;;;;;26.67;15.80;;;10.30;99.90;;;;;;5047675;28;20052;-88
2022/09/29 06:48:47;;;;;;;21.00;14.60;;;10.40;99.90;;;;;;5048684;28;20033;-88
2022/09/29 06:51:16;;;;;;;25.27;15.90;;;10.50;99.90;;;;;;5047551;28;20025;-87
2022/09/29 06:53:42;;;;;;;24.48;16.67;;;10.70;99.90;;;;;;5050856;28;20013;-87
2022/09/29 06:56:09;;;;;;;28.73;17.80;;;10.70;99.90;;;;;;5036747;28;20060;-88
2022/09/29 06:58:37;;;;;;;24.45;16.48;;;10.80;99.90;;;;;;5034004;28;20029;-89
2022/09/29 07:01:04;;;;;;;33.15;17.70;;;10.90;99.90;;;;;;5051759;28;20022;-87
2022/09/29 07:03:30;;;;;;;;;;;11.00;99.90;;;;;;5043286;28;20036;-88
2022/09/29 07:06:01;;;;;;;25.02;16.63;;;11.20;99.90;;;;;;5045819;28;19911;-87
2022/09/29 07:08:29;;;;;;;23.45;14.82;;;11.30;99.90;;;;;;5046816;28;20108;-87
2022/09/29 07:10:55;;;;;;;26.63;14.48;;;11.30;99.90;;;;;;5047427;28;20025;-88
2022/09/29 07:13:28;;;;;;;22.35;15.52;;;11.10;99.90;;;;;;5047403;28;20086;-89
2022/09/29 07:15:54;;;;;;;25.73;14.93;;;11.00;99.90;;;;;;5047019;28;20021;-88
2022/09/29 07:18:20;;;;;;;23.33;16.13;;;11.00;99.90;;;;;;5030805;28;20036;-88
2022/09/29 07:20:46;;;;;;;27.33;14.63;;;11.10;99.90;;;;;;5054792;28;20014;-87
2022/09/29 07:23:12;;;;;;;20.98;14.57;;;11.30;99.90;;;;;;5055756;28;20006;-88
2022/09/29 07:25:39;;;;;;;21.50;15.73;;;11.30;99.90;;;;;;5028135;28;20033;-88
2022/09/29 07:28:05;;;;;;;28.20;18.30;;;11.40;99.90;;;;;;5026193;28;20398;-88
2022/09/29 07:30:31;;;;;;;23.02;15.18;;;11.60;99.90;;;;;;5044016;28;20026;-89
2022/09/29 07:32:57;;;;;;;23.27;14.85;;;11.80;99.90;;;;;;5044235;28;20036;-89
2022/09/29 07:35:24;;;;;;;21.52;13.93;;;12.00;99.90;;;;;;5011417;28;20063;-88
2022/09/29 07:37:51;;;;;;;22.30;14.32;;;12.10;99.90;;;;;;5023616;28;20427;-88
2022/09/29 07:40:22;;;;;;;22.35;14.18;;;12.20;99.70;;;;;;5100071;23;20527;-89
2022/09/29 07:42:48;;;;;;;20.75;13.32;;;12.10;99.50;;;;;;5060633;28;20028;-90
2022/09/29 07:45:15;;;;;;;17.42;12.98;;;12.10;99.50;;;;;;5063654;28;20095;-90
2022/09/29 07:47:44;;;;;;;22.48;14.63;;;12.00;99.50;;;;;;5065103;28;20020;-90
2022/09/29 07:50:11;;;;;;;19.48;13.35;;;11.70;99.60;;;;;;5065134;28;20391;-89
2022/09/29 07:52:37;;;;;;;19.60;14.70;;;11.60;99.90;;;;;;5064512;28;20024;-88
2022/09/29 07:55:04;;;;;;;20.00;12.77;;;11.70;99.90;;;;;;5046961;28;20025;-87
2022/09/29 07:57:31;;;;;;;20.77;14.82;;;11.90;99.90;;;;;;5046111;28;20037;-88
2022/09/29 07:59:58;;;;;;;19.85;14.00;;;12.00;99.90;;;;;;5062678;28;20028;-87
2022/09/29 08:02:24;;;;;;;25.92;16.73;;;12.20;99.50;;;;;;5044425;28;20059;-89
2022/09/29 08:04:51;;;;;;;33.25;16.33;;;12.30;99.40;;;;;;5064637;28;20021;-88
2022/09/29 08:07:17;;;;;;;23.77;15.32;;;12.70;99.10;;;;;;5046625;28;20036;-87
2022/09/29 08:09:43;;;;;;;19.85;14.70;;;12.60;98.40;;;;;;5065013;28;20032;-88
2022/09/29 08:12:08;;;;;;;20.00;12.43;;;12.60;98.60;;;;;;5070852;28;20020;-87
2022/09/29 08:14:36;;;;;;;17.98;12.27;;;12.50;98.30;;;;;;5066752;28;20019;-88
2022/09/29 08:17:02;;;;;;;24.40;13.85;;;12.20;98.60;;;;;;5066985;28;20124;-87
2022/09/29 08:19:28;;;;;;;25.20;14.07;;;12.00;99.60;;;;;;5065159;28;20101;-88
2022/09/29 08:21:54;;;;;;;18.55;13.88;;;11.90;99.60;;;;;;5051749;28;20502;-89
2022/09/29 08:24:21;;;;;;;24.45;13.43;;;12.00;99.90;;;;;;5062724;28;20474;-88
2022/09/29 08:26:47;;;;;;;20.23;13.45;;;12.10;99.90;;;;;;5064621;28;20115;-89
2022/09/29 08:29:13;;;;;;;23.02;12.82;;;12.30;99.60;;;;;;5046517;28;20055;-90
2022/09/29 08:31:40;;;;;;;15.73;11.83;;;12.40;99.50;;;;;;5053986;28;20071;-88
2022/09/29 08:34:06;;;;;;;19.40;11.85;;;12.60;99.50;;;;;;5056923;28;20269;-87
2022/09/29 08:36:32;;;;;;;19.80;14.57;;;12.60;98.90;;;;;;5073657;28;20036;-88
2022/09/29 08:38:58;;;;;;;14.75;11.52;;;12.50;99.40;;;;;;5070452;28;20063;-88
2022/09/29 08:41:39;;;;;;;17.65;11.70;;;12.50;99.10;;;;;;5076163;28;20049;-88
2022/09/29 08:44:37;;;;;;;20.60;12.43;;;12.30;99.20;;;;;;5078152;28;20104;-88
2022/09/29 08:47:14;;;;;;;15.57;12.48;;;12.50;99.90;;;;;;5057005;28;20492;-90
2022/09/29 08:49:53;;;;;;;19.35;13.13;;;13.00;99.10;;;;;;5047035;28;20032;-89
2022/09/29 08:52:42;;;;;;;17.40;11.77;;;13.50;98.50;;;;;;5042658;28;20438;-89
2022/09/29 08:55:17;;;;;;;16.95;12.65;;;13.70;97.40;;;;;;5028487;28;20033;-89
2022/09/29 08:57:46;;;;;;;19.05;13.75;;;13.50;97.30;;;;;;5058348;28;20037;-89
2022/09/29 09:00:18;;;;;;;13.85;11.40;;;13.60;97.50;;;;;;5045311;28;20021;-91
2022/09/29 09:02:55;;;;;;;16.35;12.25;;;13.40;97.10;;;;;;5023166;28;20029;-90
2022/09/29 09:05:54;;;;;;;19.60;13.10;;;13.10;97.50;;;;;;5024455;28;20032;-88
2022/09/29 09:08:33;;;;;;;15.95;11.10;;;12.90;98.00;;;;;;5036176;28;20100;-87
2022/09/29 09:11:23;;;;;;;19.38;12.38;;;12.80;98.30;;;;;;5016079;28;20045;-87
2022/09/29 09:14:16;;;;;;;23.00;14.57;;;12.70;98.40;;;;;;5027953;28;20085;-86
2022/09/29 09:16:54;;;;;;;19.27;14.15;;;12.50;99.00;;;;;;5050841;28;20060;-88
2022/09/29 09:19:45;;;;;;;16.70;12.20;;;12.50;99.30;;;;;;5044860;28;20467;-86
2022/09/29 09:22:27;;;;;;;17.65;12.35;;;12.60;99.30;;;;;;5047594;28;20041;-88
2022/09/29 09:25:15;;;;;;;20.52;13.27;;;12.50;99.40;;;;;;5062591;28;20040;-88
2022/09/29 09:27:57;;;;;;;20.80;14.05;;;12.60;99.60;;;;;;5047543;28;20032;-90
2022/09/29 09:30:27;;;;;;;18.40;12.63;;;12.70;99.60;;;;;;5060670;28;20020;-89
2022/09/29 09:33:00;;;;;;;19.40;12.80;;;12.80;99.30;;;;;;5040375;28;20030;-91
2022/09/29 09:35:37;;;;;;;15.68;11.48;;;12.90;99.20;;;;;;5052289;28;20025;-87
2022/09/29 09:38:20;;;;;;;15.65;10.43;;;12.80;99.20;;;;;;5061680;28;20548;-92
2022/09/29 09:40:50;;;;;;;16.80;11.43;;;12.70;99.40;;;;;;5052332;28;20037;-89
2022/09/29 09:43:30;;;;;;;12.80;10.73;;;12.60;99.70;;;;;;5046649;28;20028;-91
2022/09/29 09:46:11;;;;;;;14.20;9.68;;;12.50;99.90;;;;;;5042442;28;20022;-90
2022/09/29 09:48:47;;;;;;;16.98;12.68;;;12.60;99.90;;;;;;5046716;28;20191;-88
2022/09/29 09:51:34;;;;;;;18.65;12.20;;;12.40;99.90;;;;;;5053386;28;20025;-91
2022/09/29 09:54:19;;;;;;;16.63;13.18;;;12.50;99.90;;;;;;5039218;28;20030;-89
2022/09/29 09:57:07;;;;;;;16.25;12.15;;;12.60;99.90;;;;;;5005435;28;20072;-89
2022/09/29 10:00:01;;;;;;;15.27;10.88;;;12.70;99.90;;;;;;5032941;28;20049;-89
2022/09/29 10:02:30;;;;;;;16.38;12.10;;;12.80;99.90;;;;;;5034636;28;20044;-89
2022/09/29 10:04:56;;;;;;;19.27;12.55;;;12.90;99.90;;;;;;5045066;28;20029;-89
2022/09/29 10:07:27;;;;;;;16.95;12.88;;;13.00;99.90;;;;;;5033623;28;20033;-89
2022/09/29 10:09:56;;;;;;;16.20;12.82;;;13.10;99.90;;;;;;5047329;28;20018;-89
2022/09/29 10:12:25;;;;;;;17.85;11.80;;;13.20;99.90;;;;;;5060937;28;20033;-89
2022/09/29 10:15:01;;;;;;;13.88;9.55;;;13.20;99.40;;;;;;5051053;28;20048;-90
2022/09/29 10:17:41;;;;;;;13.77;10.95;;;13.10;99.30;;;;;;5014552;28;20064;-87
2022/09/29 10:20:08;;;;;;;13.35;10.77;;;12.80;99.50;;;;;;5055899;28;20014;-90
2022/09/29 10:22:35;;;;;;;17.70;11.85;;;12.70;99.90;;;;;;5067246;28;20052;-87
2022/09/29 10:25:17;;;;;;;14.57;10.37;;;12.70;99.90;;;;;;5066151;28;20055;-90
2022/09/29 10:27:49;;;;;;;19.10;12.70;;;12.90;99.90;;;;;;5053781;28;20017;-88
2022/09/29 10:30:31;;;;;;;16.17;11.82;;;12.90;99.90;;;;;;5066819;28;20025;-88
2022/09/29 10:33:00;;;;;;;16.20;12.40;;;13.00;99.90;;;;;;5047926;28;20163;-87
2022/09/29 10:35:32;;;;;;;15.50;10.75;;;13.00;99.80;;;;;;5026593;28;20029;-89
2022/09/29 10:38:08;;;;;;;16.80;13.52;;;12.90;99.70;;;;;;5058478;28;20032;-88
2022/09/29 10:40:35;;;;;;;17.88;13.13;;;12.90;99.90;;;;;;5056940;28;20052;-87
2022/09/29 10:43:24;;;;;;;16.10;12.68;;;13.00;99.90;;;;;;5063157;28;20033;-89
2022/09/29 10:45:52;;;;;;;17.25;12.25;;;13.20;99.90;;;;;;5073710;28;20021;-88
2022/09/29 10:48:18;;;;;;;18.63;11.13;;;13.20;99.50;;;;;;5073125;28;20036;-87
2022/09/29 10:50:52;;;;;;;16.92;12.05;;;13.20;99.50;;;;;;5073298;28;20029;-88
2022/09/29 10:53:34;;;;;;;16.05;12.30;;;13.30;99.40;;;;;;5062751;28;20041;-89
2022/09/29 10:56:09;;;;;;;17.75;11.73;;;13.30;99.40;;;;;;5036916;28;20021;-88
2022/09/29 10:58:52;;;;;;;19.13;12.30;;;13.40;99.20;;;;;;5029936;28;20009;-88
2022/09/29 11:01:19;;;;;;;15.57;11.98;;;13.50;99.00;;;;;;5059089;28;20529;-89
2022/09/29 11:04:06;;;;;;;16.30;11.63;;;13.50;98.70;;;;;;5045771;28;20025;-89
2022/09/29 11:06:37;;;;;;;15.25;11.95;;;13.50;98.70;;;;;;5040474;28;20038;-89
2022/09/29 11:09:17;;;;;;;13.90;11.30;;;13.50;98.80;;;;;;5043355;28;20024;-89
2022/09/29 11:11:48;;;;;;;13.73;10.90;;;13.40;98.60;;;;;;5041010;28;20544;-89
2022/09/29 11:14:36;;;;;;;14.52;11.48;;;13.40;98.70;;;;;;5039348;28;20120;-89
2022/09/29 11:17:25;;;;;;;15.90;11.82;;;13.30;98.90;;;;;;5054692;28;20087;-88
2022/09/29 11:19:59;;;;;;;16.90;10.80;;;13.30;99.10;;;;;;5031341;28;20025;-87
2022/09/29 11:22:41;;;;;;;15.48;11.50;;;13.50;99.00;;;;;;5025724;28;20041;-88
2022/09/29 11:25:22;;;;;;;12.18;10.90;;;13.60;98.60;;;;;;5064106;28;20036;-89
2022/09/29 11:28:03;;;;;;;12.52;9.65;;;13.80;98.30;;;;;;5044204;28;20075;-90
2022/09/29 11:30:45;;;;;;;11.48;9.40;;;13.90;97.60;;;;;;5047727;28;20017;-87
2022/09/29 11:33:11;;;;;;;13.18;9.50;;;13.90;97.10;;;;;;5043045;28;20010;-88
2022/09/29 11:35:43;;;;;;;14.88;10.55;;;13.90;97.10;;;;;;5053213;28;20072;-88
2022/09/29 11:38:20;;;;;;;14.68;10.32;;;14.10;96.90;;;;;;5047510;28;20053;-88
2022/09/29 11:41:24;;;;;;;12.00;9.23;;;14.20;96.40;;;;;;5056227;28;20124;-87
2022/09/29 11:43:57;;;;;;;16.13;10.15;;;14.30;96.20;;;;;;5037903;28;20056;-86
2022/09/29 11:46:52;;;;;;;13.27;9.70;;;14.60;95.90;;;;;;5059016;28;20021;-88
2022/09/29 11:49:44;;;;;;;12.68;9.38;;;14.80;95.50;;;;;;5036968;28;20021;-90
2022/09/29 11:52:10;;;;;;;11.38;9.35;;;14.90;94.80;;;;;;5021937;28;20029;-89
2022/09/29 11:54:59;;;;;;;14.80;9.55;;;14.80;94.60;;;;;;5048299;28;20033;-90
2022/09/29 11:57:53;;;;;;;15.20;8.77;;;14.70;94.60;;;;;;5044984;28;20073;-88
2022/09/29 12:00:21;;;;;;;12.60;9.48;;;14.70;95.10;;;;;;5043622;28;20053;-91
2022/09/29 12:03:05;;;;;;;15.02;9.75;;;14.60;94.70;;;;;;5063687;28;20049;-89
2022/09/29 12:06:00;;;;;;;14.20;9.65;;;14.70;94.60;;;;;;5054007;28;20032;-90
2022/09/29 12:08:53;;;;;;;11.45;8.40;;;14.80;94.50;;;;;;5054667;28;20025;-88
2022/09/29 12:11:55;;;;;;;14.38;9.73;;;15.00;94.10;;;;;;5029762;28;20040;-91
2022/09/29 12:14:30;;;;;;;12.23;9.48;;;14.90;93.90;;;;;;5023655;28;20115;-89
2022/09/29 12:17:03;;;;;;;15.48;9.40;;;14.90;93.90;;;;;;5038013;28;20062;-90
2022/09/29 12:19:36;;;;;;;12.10;9.35;;;14.90;93.90;;;;;;5047457;28;20013;-88
2022/09/29 12:22:06;;;;;;;14.00;10.07;;;14.90;93.70;;;;;;5047720;28;20116;-90
2022/09/29 12:24:50;;;;;;;10.70;8.05;;;15.00;93.90;;;;;;5061323;28;20143;-89
2022/09/29 12:27:25;;;;;;;12.15;9.65;;;15.10;92.90;;;;;;5046526;28;20053;-88
2022/09/29 12:30:01;;;;;;;15.82;9.13;;;15.10;92.60;;;;;;5032675;28;20139;-89
2022/09/29 12:32:34;;;;;;;12.77;9.45;;;15.20;92.80;;;;;;5045298;28;20490;-89
2022/09/29 12:35:30;;;;;;;13.70;9.30;;;15.20;92.80;;;;;;5060530;28;20021;-88
2022/09/29 12:38:14;;;;;;;12.73;9.97;;;15.10;92.50;;;;;;5031510;28;20044;-91
2022/09/29 12:40:58;;;;;;;14.45;9.45;;;15.10;92.70;;;;;;5039044;28;20048;-89
2022/09/29 12:43:31;;;;;;;13.93;10.55;;;15.20;92.70;;;;;;5042329;28;20025;-90
2022/09/29 12:46:18;;;;;;;10.70;8.27;;;15.30;92.30;;;;;;5046526;28;20025;-89
2022/09/29 12:48:54;;;;;;;14.20;10.02;;;15.30;91.90;;;;;;5066638;28;20006;-87
2022/09/29 12:51:38;;;;;;;12.93;8.85;;;15.20;92.10;;;;;;5075211;28;20008;-89
2022/09/29 12:54:30;;;;;;;13.32;9.38;;;15.20;91.90;;;;;;5027583;28;20032;-89
2022/09/29 12:57:01;;;;;;;13.75;9.98;;;15.10;91.90;;;;;;5060089;28;20025;-88
2022/09/29 12:59:40;;;;;;;18.17;8.85;;;15.10;92.20;;;;;;5046173;28;20013;-89
2022/09/29 13:02:43;;;;;;;13.32;8.80;;;15.00;92.10;;;;;;5070312;28;20024;-89
2022/09/29 13:05:39;;;;;;;12.02;9.13;;;14.90;92.30;;;;;;5050924;28;20363;-89
2022/09/29 13:08:31;;;;;;;11.63;8.50;;;14.80;92.40;;;;;;5029809;28;20025;-90
2022/09/29 13:11:01;;;;;;;11.88;9.13;;;14.70;92.30;;;;;;5035632;28;20266;-87